sensor_id;sensor_type;location;lat;lon;timestamp;temperature;humidity
30250;DHT22;17064;47.974;13.826;2023-03-01T04:00:45;-2.60;99.90
30250;DHT22;17064;47.974;13.826;2023-03-01T04:05:46;-2.70;99.90
30250;DHT22;17064;47.974;13.826;2023-03-01T04:10:50;-2.70;99.90
30250;DHT22;17064;47.974;13.826;2023-03-01T04:15:52;-2.80;99.90
30250;DHT22;17064;47.974;13.826;2023-03-01T04:20:53;-2.80;99.90
30250;DHT22;17064;47.974;13.826;2023-03-01T04:25:57;-2.90;99.90
30250;DHT22;17064;47.974;13.826;2023-03-01T04:30:58;-2.90;99.90
30250;DHT22;17064;47.974;13.826;2023-03-01T04:36:02;-3.00;99.90
30250;DHT22;17064;47.974;13.826;2023-03-01T04:41:10;-3.00;99.90
30250;DHT22;17064;47.974;13.826;2023-03-01T04:46:14;-3.00;99.90
30250;DHT22;17064;47.974;13.826;2023-03-01T04:51:15;-3.00;99.90
30250;DHT22;17064;47.974;13.826;2023-03-01T04:56:16;-3.10;99.90
30250;DHT22;17064;47.974;13.826;2023-03-01T05:01:20;-3.00;99.90
30250;DHT22;17064;47.974;13.826;2023-03-01T05:06:21;-3.00;99.90
30250;DHT22;17064;47.974;13.826;2023-03-01T05:11:22;-2.90;99.90
30250;DHT22;17064;47.974;13.826;2023-03-01T05:16:23;-3.00;99.90
30250;DHT22;17064;47.974;13.826;2023-03-01T05:21:25;-3.10;99.90
30250;DHT22;17064;47.974;13.826;2023-03-01T05:26:25;-3.10;99.90
30250;DHT22;17064;47.974;13.826;2023-03-01T05:31:29;-3.20;99.90
30250;DHT22;17064;47.974;13.826;2023-03-01T05:36:30;-3.20;99.90
30250;DHT22;17064;47.974;13.826;2023-03-01T05:41:31;-3.20;99.90
30250;DHT22;17064;47.974;13.826;2023-03-01T05:46:32;-3.20;99.90
30250;DHT22;17064;47.974;13.826;2023-03-01T05:51:33;-3.30;99.90
30250;DHT22;17064;47.974;13.826;2023-03-01T05:56:36;-3.30;99.90
30250;DHT22;17064;47.974;13.826;2023-03-01T06:01:37;-3.40;99.90
30250;DHT22;17064;47.974;13.826;2023-03-01T06:06:38;-3.50;99.90
30250;DHT22;17064;47.974;13.826;2023-03-01T06:11:39;-3.50;99.90
30250;DHT22;17064;47.974;13.826;2023-03-01T06:16:40;-3.50;99.90
30250;DHT22;17064;47.974;13.826;2023-03-01T06:21:41;-3.50;99.90
30250;DHT22;17064;47.974;13.826;2023-03-01T06:26:42;-3.50;99.90
30250;DHT22;17064;47.974;13.826;2023-03-01T06:31:42;-3.40;99.90
30250;DHT22;17064;47.974;13.826;2023-03-01T06:36:43;-3.30;99.90
30250;DHT22;17064;47.974;13.826;2023-03-01T06:41:44;-3.20;99.90
30250;DHT22;17064;47.974;13.826;2023-03-01T06:46:45;-3.10;99.90
30250;DHT22;17064;47.974;13.826;2023-03-01T06:51:45;-3.00;99.90
30250;DHT22;17064;47.974;13.826;2023-03-01T06:56:46;-2.90;99.90
30250;DHT22;17064;47.974;13.826;2023-03-01T07:01:47;-2.70;99.90
30250;DHT22;17064;47.974;13.826;2023-03-01T07:06:48;-2.50;99.90
30250;DHT22;17064;47.974;13.826;2023-03-01T07:11:56;-2.30;99.90
30250;DHT22;17064;47.974;13.826;2023-03-01T07:16:57;-2.10;99.90
30250;DHT22;17064;47.974;13.826;2023-03-01T07:21:58;-2.00;99.90
30250;DHT22;17064;47.974;13.826;2023-03-01T07:26:58;-1.80;99.90
30250;DHT22;17064;47.974;13.826;2023-03-01T07:31:59;-1.60;99.90
30250;DHT22;17064;47.974;13.826;2023-03-01T07:37:00;-1.50;99.90
30250;DHT22;17064;47.974;13.826;2023-03-01T07:42:00;-1.30;99.90
30250;DHT22;17064;47.974;13.826;2023-03-01T07:47:02;-1.10;99.90
30250;DHT22;17064;47.974;13.826;2023-03-01T07:52:03;-1.00;99.90
30250;DHT22;17064;47.974;13.826;2023-03-01T07:57:04;-0.80;99.90
30250;DHT22;17064;47.974;13.826;2023-03-01T08:02:05;-0.60;99.90
30250;DHT22;17064;47.974;13.826;2023-03-01T08:07:05;-0.40;99.90
30250;DHT22;17064;47.974;13.826;2023-03-01T08:12:06;-0.30;99.90
30250;DHT22;17064;47.974;13.826;2023-03-01T08:17:07;0.00;99.90
30250;DHT22;17064;47.974;13.826;2023-03-01T08:22:08;0.30;99.90
30250;DHT22;17064;47.974;13.826;2023-03-01T08:27:09;0.60;99.90
30250;DHT22;17064;47.974;13.826;2023-03-01T08:32:10;0.90;99.90
30250;DHT22;17064;47.974;13.826;2023-03-01T08:37:11;1.20;99.90
30250;DHT22;17064;47.974;13.826;2023-03-01T08:42:11;1.40;99.90
30250;DHT22;17064;47.974;13.826;2023-03-01T08:47:12;1.60;99.90
30250;DHT22;17064;47.974;13.826;2023-03-01T08:52:13;1.90;99.90
30250;DHT22;17064;47.974;13.826;2023-03-01T08:57:13;2.10;99.90
30250;DHT22;17064;47.974;13.826;2023-03-01T09:02:18;2.20;99.90
30250;DHT22;17064;47.974;13.826;2023-03-01T09:07:19;2.50;99.90
30250;DHT22;17064;47.974;13.826;2023-03-01T09:12:20;2.70;99.90
30250;DHT22;17064;47.974;13.826;2023-03-01T09:17:20;2.80;99.90
30250;DHT22;17064;47.974;13.826;2023-03-01T09:22:21;2.90;99.90
30250;DHT22;17064;47.974;13.826;2023-03-01T09:27:22;3.10;99.90
30250;DHT22;17064;47.974;13.826;2023-03-01T09:32:25;3.30;99.90
30250;DHT22;17064;47.974;13.826;2023-03-01T09:37:26;3.30;99.90
30250;DHT22;17064;47.974;13.826;2023-03-01T09:42:29;3.40;99.90
30250;DHT22;17064;47.974;13.826;2023-03-01T09:47:34;3.50;99.90
30250;DHT22;17064;47.974;13.826;2023-03-01T09:52:59;3.80;99.90
30250;DHT22;17064;47.974;13.826;2023-03-01T09:58:34;3.80;99.90
30250;DHT22;17064;47.974;13.826;2023-03-01T10:04:20;4.10;99.90
30250;DHT22;17064;47.974;13.826;2023-03-01T10:09:24;4.20;99.90
30250;DHT22;17064;47.974;13.826;2023-03-01T10:19:55;4.20;99.90
30250;DHT22;17064;47.974;13.826;2023-03-01T10:25:03;4.30;99.90
30250;DHT22;17064;47.974;13.826;2023-03-01T10:35:25;4.80;99.90
30250;DHT22;17064;47.974;13.826;2023-03-01T10:40:27;4.80;99.90
30250;DHT22;17064;47.974;13.826;2023-03-01T10:45:40;5.10;99.90
30250;DHT22;17064;47.974;13.826;2023-03-01T10:50:46;5.10;99.90
30250;DHT22;17064;47.974;13.826;2023-03-01T10:55:47;5.20;99.90
30250;DHT22;17064;47.974;13.826;2023-03-01T11:00:59;5.20;99.90
30250;DHT22;17064;47.974;13.826;2023-03-01T11:21:27;6.00;99.90
30250;DHT22;17064;47.974;13.826;2023-03-01T11:26:31;6.30;99.90
30250;DHT22;17064;47.974;13.826;2023-03-01T11:31:35;6.40;99.90
30250;DHT22;17064;47.974;13.826;2023-03-01T11:36:49;6.60;99.90
30250;DHT22;17064;47.974;13.826;2023-03-01T11:41:59;6.70;99.90
30250;DHT22;17064;47.974;13.826;2023-03-01T11:52:47;7.10;99.90
30250;DHT22;17064;47.974;13.826;2023-03-01T12:24:48;7.70;98.10
30250;DHT22;17064;47.974;13.826;2023-03-01T12:30:42;7.70;99.00
30250;DHT22;17064;47.974;13.826;2023-03-01T12:41:40;8.20;98.30
30250;DHT22;17064;47.974;13.826;2023-03-01T12:46:41;8.60;96.20
30250;DHT22;17064;47.974;13.826;2023-03-01T12:52:21;8.50;96.50
30250;DHT22;17064;47.974;13.826;2023-03-01T12:57:41;8.80;97.20
30250;DHT22;17064;47.974;13.826;2023-03-01T13:08:33;9.50;95.20
30250;DHT22;17064;47.974;13.826;2023-03-01T13:13:36;10.10;93.50
30250;DHT22;17064;47.974;13.826;2023-03-01T13:18:37;10.50;91.30
30250;DHT22;17064;47.974;13.826;2023-03-01T13:23:39;10.40;90.70
30250;DHT22;17064;47.974;13.826;2023-03-01T13:28:54;10.50;90.70
30250;DHT22;17064;47.974;13.826;2023-03-01T13:33:58;11.00;87.70
30250;DHT22;17064;47.974;13.826;2023-03-01T13:39:01;11.20;86.10
30250;DHT22;17064;47.974;13.826;2023-03-01T13:44:02;11.40;87.50
30250;DHT22;17064;47.974;13.826;2023-03-01T13:49:16;11.90;83.60
30250;DHT22;17064;47.974;13.826;2023-03-01T13:54:29;11.90;81.20
30250;DHT22;17064;47.974;13.826;2023-03-01T13:59:31;12.00;80.80
30250;DHT22;17064;47.974;13.826;2023-03-01T14:04:33;12.40;80.30
30250;DHT22;17064;47.974;13.826;2023-03-01T14:09:40;12.60;78.80
30250;DHT22;17064;47.974;13.826;2023-03-01T14:20:01;11.90;77.80
30250;DHT22;17064;47.974;13.826;2023-03-01T14:25:14;11.80;79.00
30250;DHT22;17064;47.974;13.826;2023-03-01T14:30:21;11.30;78.90
30250;DHT22;17064;47.974;13.826;2023-03-01T14:35:26;10.20;84.00
30250;DHT22;17064;47.974;13.826;2023-03-01T14:40:35;9.40;88.20
30250;DHT22;17064;47.974;13.826;2023-03-01T14:45:36;8.90;90.30
30250;DHT22;17064;47.974;13.826;2023-03-01T14:50:41;8.50;91.30
30250;DHT22;17064;47.974;13.826;2023-03-01T14:55:46;8.30;91.70
30250;DHT22;17064;47.974;13.826;2023-03-01T15:01:15;7.90;92.20
30250;DHT22;17064;47.974;13.826;2023-03-01T15:06:21;7.60;93.30
30250;DHT22;17064;47.974;13.826;2023-03-01T15:11:31;7.80;94.00
30250;DHT22;17064;47.974;13.826;2023-03-01T15:16:34;8.20;92.80
30250;DHT22;17064;47.974;13.826;2023-03-01T15:21:45;8.20;92.30
30250;DHT22;17064;47.974;13.826;2023-03-01T15:27:00;8.10;93.50
30250;DHT22;17064;47.974;13.826;2023-03-01T15:32:31;7.60;93.80
30250;DHT22;17064;47.974;13.826;2023-03-01T15:37:45;7.00;95.20
30250;DHT22;17064;47.974;13.826;2023-03-01T15:42:50;6.50;97.20
30250;DHT22;17064;47.974;13.826;2023-03-01T15:53:27;5.90;99.90
30250;DHT22;17064;47.974;13.826;2023-03-01T15:58:28;5.70;99.90
30250;DHT22;17064;47.974;13.826;2023-03-01T16:03:29;5.50;99.90
30250;DHT22;17064;47.974;13.826;2023-03-01T16:08:30;5.40;99.90
30250;DHT22;17064;47.974;13.826;2023-03-01T16:13:31;5.20;99.90
30250;DHT22;17064;47.974;13.826;2023-03-01T16:18:32;5.10;99.90
30250;DHT22;17064;47.974;13.826;2023-03-01T16:23:33;4.90;99.90
30250;DHT22;17064;47.974;13.826;2023-03-01T16:28:34;4.80;99.90
30250;DHT22;17064;47.974;13.826;2023-03-01T16:33:35;4.70;99.90
30250;DHT22;17064;47.974;13.826;2023-03-01T16:38:36;4.50;99.90
30250;DHT22;17064;47.974;13.826;2023-03-01T16:43:38;4.40;99.90
30250;DHT22;17064;47.974;13.826;2023-03-01T16:48:38;4.40;99.90
30250;DHT22;17064;47.974;13.826;2023-03-01T16:53:40;4.30;99.90
30250;DHT22;17064;47.974;13.826;2023-03-01T16:58:41;4.20;99.90
30250;DHT22;17064;47.974;13.826;2023-03-01T17:03:43;4.10;99.90
30250;DHT22;17064;47.974;13.826;2023-03-01T17:08:44;4.10;99.90
30250;DHT22;17064;47.974;13.826;2023-03-01T17:13:46;3.90;99.90
30250;DHT22;17064;47.974;13.826;2023-03-01T17:18:48;3.70;99.90
30250;DHT22;17064;47.974;13.826;2023-03-01T17:23:49;3.60;99.90
30250;DHT22;17064;47.974;13.826;2023-03-01T17:28:51;3.60;99.90
30250;DHT22;17064;47.974;13.826;2023-03-01T17:33:52;3.40;99.90
30250;DHT22;17064;47.974;13.826;2023-03-01T17:38:53;3.50;99.90
30250;DHT22;17064;47.974;13.826;2023-03-01T17:43:54;3.50;99.90
30250;DHT22;17064;47.974;13.826;2023-03-01T17:48:54;3.40;99.90
30250;DHT22;17064;47.974;13.826;2023-03-01T17:53:55;3.30;99.90
30250;DHT22;17064;47.974;13.826;2023-03-01T17:58:56;3.10;99.90
30250;DHT22;17064;47.974;13.826;2023-03-01T18:03:57;3.10;99.90
30250;DHT22;17064;47.974;13.826;2023-03-01T18:08:59;3.00;99.90
30250;DHT22;17064;47.974;13.826;2023-03-01T18:14:00;3.00;99.90
30250;DHT22;17064;47.974;13.826;2023-03-01T18:19:02;2.90;99.90
30250;DHT22;17064;47.974;13.826;2023-03-01T18:24:03;2.80;99.90
30250;DHT22;17064;47.974;13.826;2023-03-01T18:29:04;2.80;99.90
30250;DHT22;17064;47.974;13.826;2023-03-01T18:34:10;2.80;99.90
30250;DHT22;17064;47.974;13.826;2023-03-01T18:39:11;2.70;99.90
30250;DHT22;17064;47.974;13.826;2023-03-01T18:44:14;2.70;99.90
30250;DHT22;17064;47.974;13.826;2023-03-01T18:49:16;2.70;99.90
30250;DHT22;17064;47.974;13.826;2023-03-01T18:54:17;2.60;99.90
30250;DHT22;17064;47.974;13.826;2023-03-01T18:59:19;2.50;99.90
30250;DHT22;17064;47.974;13.826;2023-03-01T19:04:20;2.40;99.90
30250;DHT22;17064;47.974;13.826;2023-03-01T19:09:21;2.40;99.90
30250;DHT22;17064;47.974;13.826;2023-03-01T19:14:25;2.50;99.90
30250;DHT22;17064;47.974;13.826;2023-03-01T19:19:26;2.50;99.90
30250;DHT22;17064;47.974;13.826;2023-03-01T19:24:27;2.40;99.90
30250;DHT22;17064;47.974;13.826;2023-03-01T19:29:29;2.50;99.90
30250;DHT22;17064;47.974;13.826;2023-03-01T19:34:31;2.40;99.90
30250;DHT22;17064;47.974;13.826;2023-03-01T19:39:34;2.30;99.90
30250;DHT22;17064;47.974;13.826;2023-03-01T19:44:35;2.10;99.90
30250;DHT22;17064;47.974;13.826;2023-03-01T19:49:36;2.00;99.90
30250;DHT22;17064;47.974;13.826;2023-03-01T19:54:40;2.00;99.90
30250;DHT22;17064;47.974;13.826;2023-03-01T19:59:43;1.90;99.90
30250;DHT22;17064;47.974;13.826;2023-03-01T20:04:45;1.80;99.90
30250;DHT22;17064;47.974;13.826;2023-03-01T20:09:47;1.80;99.90
30250;DHT22;17064;47.974;13.826;2023-03-01T20:14:48;1.80;99.90
30250;DHT22;17064;47.974;13.826;2023-03-01T20:19:54;1.70;99.90
30250;DHT22;17064;47.974;13.826;2023-03-01T20:24:56;1.70;99.90
30250;DHT22;17064;47.974;13.826;2023-03-01T20:29:57;1.60;99.90
30250;DHT22;17064;47.974;13.826;2023-03-01T20:34:58;1.50;99.90
30250;DHT22;17064;47.974;13.826;2023-03-01T20:39:59;1.40;99.90
30250;DHT22;17064;47.974;13.826;2023-03-01T20:45:00;1.30;99.90
30250;DHT22;17064;47.974;13.826;2023-03-01T20:50:03;1.20;99.90
30250;DHT22;17064;47.974;13.826;2023-03-01T20:55:05;1.10;99.90
30250;DHT22;17064;47.974;13.826;2023-03-01T21:00:08;1.00;99.90
30250;DHT22;17064;47.974;13.826;2023-03-01T21:05:09;1.00;99.90
30250;DHT22;17064;47.974;13.826;2023-03-01T21:10:11;0.90;99.90
30250;DHT22;17064;47.974;13.826;2023-03-01T21:15:13;0.80;99.90
30250;DHT22;17064;47.974;13.826;2023-03-01T21:20:17;0.70;99.90
30250;DHT22;17064;47.974;13.826;2023-03-01T21:25:18;0.50;99.90
30250;DHT22;17064;47.974;13.826;2023-03-01T21:30:19;0.40;99.90
30250;DHT22;17064;47.974;13.826;2023-03-01T21:35:20;0.40;99.90
30250;DHT22;17064;47.974;13.826;2023-03-01T21:40:21;0.20;99.90
30250;DHT22;17064;47.974;13.826;2023-03-01T21:45:21;0.20;99.90
30250;DHT22;17064;47.974;13.826;2023-03-01T21:50:22;0.10;99.90
30250;DHT22;17064;47.974;13.826;2023-03-01T21:55:23;0.00;99.90
30250;DHT22;17064;47.974;13.826;2023-03-01T22:00:23;-0.10;99.90
30250;DHT22;17064;47.974;13.826;2023-03-01T22:05:24;-0.10;99.90
30250;DHT22;17064;47.974;13.826;2023-03-01T22:10:25;-0.10;99.90
30250;DHT22;17064;47.974;13.826;2023-03-01T22:15:26;-0.20;99.90
30250;DHT22;17064;47.974;13.826;2023-03-01T22:20:27;-0.30;99.90
30250;DHT22;17064;47.974;13.826;2023-03-01T22:25:28;-0.40;99.90
30250;DHT22;17064;47.974;13.826;2023-03-01T22:30:29;-0.50;99.90
30250;DHT22;17064;47.974;13.826;2023-03-01T22:35:30;-0.60;99.90
30250;DHT22;17064;47.974;13.826;2023-03-01T22:40:31;-0.70;99.90
30250;DHT22;17064;47.974;13.826;2023-03-01T22:45:31;-0.80;99.90
30250;DHT22;17064;47.974;13.826;2023-03-01T22:50:32;-0.80;99.90
30250;DHT22;17064;47.974;13.826;2023-03-01T22:55:34;-0.90;99.90
30250;DHT22;17064;47.974;13.826;2023-03-01T23:00:35;-1.00;99.90
30250;DHT22;17064;47.974;13.826;2023-03-01T23:05:36;-1.00;99.90
30250;DHT22;17064;47.974;13.826;2023-03-01T23:10:39;-1.10;99.90
30250;DHT22;17064;47.974;13.826;2023-03-01T23:15:40;-1.20;99.90
30250;DHT22;17064;47.974;13.826;2023-03-01T23:20:44;-1.20;99.90
30250;DHT22;17064;47.974;13.826;2023-03-01T23:25:53;-1.30;99.90
30250;DHT22;17064;47.974;13.826;2023-03-01T23:30:56;-1.30;99.90
30250;DHT22;17064;47.974;13.826;2023-03-01T23:35:57;-1.40;99.90
30250;DHT22;17064;47.974;13.826;2023-03-01T23:40:59;-1.40;99.90
30250;DHT22;17064;47.974;13.826;2023-03-01T23:46:00;-1.40;99.90
30250;DHT22;17064;47.974;13.826;2023-03-01T23:51:04;-1.50;99.90
30250;DHT22;17064;47.974;13.826;2023-03-01T23:56:06;-1.50;99.90
